createdAt,value
2018-05-21T00:00:23.272Z,44.90
2018-05-21T00:00:55.819Z,44.40
2018-05-21T00:01:28.385Z,44.30
2018-05-21T00:02:00.899Z,44.40
2018-05-21T00:02:33.436Z,44.40
2018-05-21T00:03:05.992Z,44.50
2018-05-21T00:03:38.553Z,44.20
2018-05-21T00:04:11.108Z,45.00
2018-05-21T00:04:43.629Z,45.50
2018-05-21T00:05:16.175Z,45.60
2018-05-21T00:05:48.688Z,45.50
2018-05-21T00:06:21.233Z,45.30
2018-05-21T00:06:53.765Z,45.70
2018-05-21T00:07:26.336Z,46.20
2018-05-21T00:07:58.856Z,46.20
2018-05-21T00:08:31.391Z,46.30
2018-05-21T00:09:03.944Z,46.30
2018-05-21T00:09:36.484Z,46.10
2018-05-21T00:10:09.042Z,46.20
2018-05-21T00:10:41.590Z,46.10
2018-05-21T00:11:14.122Z,46.30
2018-05-21T00:11:46.635Z,46.00
2018-05-21T00:12:19.186Z,46.30
2018-05-21T00:12:51.764Z,45.80
2018-05-21T00:13:24.764Z,45.50
2018-05-21T00:13:57.625Z,45.20
2018-05-21T00:14:30.150Z,45.30
2018-05-21T00:15:02.668Z,45.10
2018-05-21T00:15:35.981Z,45.50
2018-05-21T00:16:08.516Z,44.80
2018-05-21T00:16:41.124Z,44.90
2018-05-21T00:17:13.629Z,45.30
2018-05-21T00:17:46.180Z,45.70
2018-05-21T00:18:18.720Z,46.00
2018-05-21T00:18:51.282Z,46.20
2018-05-21T00:19:23.820Z,45.80
2018-05-21T00:19:56.384Z,45.00
2018-05-21T00:20:28.917Z,44.90
2018-05-21T00:21:01.456Z,45.10
2018-05-21T00:21:33.999Z,45.10
2018-05-21T00:22:06.560Z,45.40
2018-05-21T00:22:39.080Z,45.50
2018-05-21T00:23:11.634Z,45.60
2018-05-21T00:23:44.155Z,45.30
2018-05-21T00:24:16.676Z,45.00
2018-05-21T00:24:49.225Z,44.90
2018-05-21T00:25:21.771Z,44.80
2018-05-21T00:25:54.317Z,45.10
2018-05-21T00:26:26.881Z,45.70
2018-05-21T00:26:59.430Z,45.90
2018-05-21T00:27:32.050Z,46.80
2018-05-21T00:28:04.608Z,46.00
2018-05-21T00:28:37.127Z,46.50
2018-05-21T00:29:09.681Z,46.20
2018-05-21T00:29:42.215Z,46.20
2018-05-21T00:30:14.770Z,45.90
2018-05-21T00:30:47.336Z,46.00
2018-05-21T00:31:19.885Z,46.40
2018-05-21T00:31:52.447Z,46.30
2018-05-21T00:32:25.003Z,46.40
2018-05-21T00:32:57.547Z,46.30
2018-05-21T00:33:30.071Z,46.30
2018-05-21T00:34:02.601Z,46.20
2018-05-21T00:34:35.137Z,46.10
2018-05-21T00:35:07.661Z,45.70
2018-05-21T00:35:40.211Z,45.90
2018-05-21T00:36:12.740Z,46.00
2018-05-21T00:36:45.289Z,46.00
2018-05-21T00:37:17.845Z,46.10
2018-05-21T00:37:50.420Z,45.70
2018-05-21T00:38:22.967Z,45.50
2018-05-21T00:38:55.507Z,45.60
2018-05-21T00:39:28.037Z,45.80
2018-05-21T00:40:00.676Z,45.90
2018-05-21T00:40:33.199Z,45.80
2018-05-21T00:41:05.763Z,45.60
2018-05-21T00:41:38.315Z,45.40
2018-05-21T00:42:10.864Z,45.90
2018-05-21T00:42:43.380Z,45.30
2018-05-21T00:43:15.956Z,45.20
2018-05-21T00:43:48.542Z,45.40
2018-05-21T00:44:21.113Z,45.10
2018-05-21T00:44:53.647Z,45.40
2018-05-21T00:45:26.191Z,45.60
2018-05-21T00:45:58.759Z,45.80
2018-05-21T00:46:31.310Z,45.90
2018-05-21T00:47:03.859Z,45.80
2018-05-21T00:47:36.409Z,46.10
2018-05-21T00:48:09.727Z,45.90
2018-05-21T00:48:42.379Z,45.70
2018-05-21T00:49:14.952Z,45.40
2018-05-21T00:49:47.502Z,45.60
2018-05-21T00:50:20.150Z,45.80
2018-05-21T00:50:52.629Z,46.10
2018-05-21T00:51:25.162Z,46.10
2018-05-21T00:51:57.707Z,45.90
2018-05-21T00:52:30.267Z,45.50
2018-05-21T00:53:02.796Z,45.30
2018-05-21T00:53:35.329Z,45.00
2018-05-21T00:54:07.868Z,44.90
2018-05-21T00:54:52.145Z,45.10
2018-05-21T00:55:36.447Z,45.30
2018-05-21T00:56:09.012Z,45.40
2018-05-21T00:56:41.532Z,45.30
2018-05-21T00:57:14.069Z,45.20
2018-05-21T00:57:46.607Z,45.10
2018-05-21T00:58:19.317Z,45.00
2018-05-21T00:58:51.872Z,44.80
2018-05-21T00:59:24.388Z,44.80
2018-05-21T00:59:56.952Z,45.10
2018-05-21T01:00:30.163Z,45.20
2018-05-21T01:01:02.996Z,45.50
2018-05-21T01:01:35.544Z,45.10
2018-05-21T01:02:08.104Z,44.90
2018-05-21T01:02:40.636Z,44.80
2018-05-21T01:03:13.173Z,44.80
2018-05-21T01:03:45.737Z,44.80
2018-05-21T01:04:18.288Z,44.60
2018-05-21T01:04:50.832Z,44.80
2018-05-21T01:05:23.378Z,44.80
2018-05-21T01:05:55.914Z,44.80
2018-05-21T01:06:28.458Z,44.90
2018-05-21T01:07:01.746Z,44.80
2018-05-21T01:07:34.293Z,44.80
2018-05-21T01:08:06.846Z,44.90
2018-05-21T01:08:39.374Z,44.80
2018-05-21T01:09:11.916Z,44.70
2018-05-21T01:09:44.465Z,44.60
2018-05-21T01:10:17.055Z,44.50
2018-05-21T01:10:49.601Z,44.50
2018-05-21T01:11:22.184Z,44.40
2018-05-21T01:11:54.749Z,44.60
2018-05-21T01:12:27.263Z,45.30
2018-05-21T01:13:00.836Z,44.80
2018-05-21T01:13:34.128Z,44.70
2018-05-21T01:14:06.657Z,44.70
2018-05-21T01:14:39.193Z,44.80
2018-05-21T01:15:11.733Z,44.80
2018-05-21T01:15:44.485Z,44.80
2018-05-21T01:16:17.777Z,45.10
2018-05-21T01:16:50.336Z,44.80
2018-05-21T01:17:23.234Z,44.70
2018-05-21T01:17:55.794Z,44.70
2018-05-21T01:18:28.369Z,44.80
2018-05-21T01:19:00.917Z,44.50
2018-05-21T01:19:33.471Z,44.50
2018-05-21T01:20:06.038Z,44.50
2018-05-21T01:20:38.579Z,44.50
2018-05-21T01:21:11.132Z,44.40
2018-05-21T01:21:43.679Z,44.30
2018-05-21T01:22:16.205Z,44.50
2018-05-21T01:22:48.785Z,44.50
2018-05-21T01:23:21.343Z,44.70
2018-05-21T01:23:53.892Z,44.70
2018-05-21T01:24:26.415Z,44.80
2018-05-21T01:24:58.983Z,44.70
2018-05-21T01:25:32.288Z,44.90
2018-05-21T01:26:04.821Z,44.70
2018-05-21T01:26:37.368Z,44.70
2018-05-21T01:27:10.715Z,44.70
2018-05-21T01:27:43.276Z,44.80
2018-05-21T01:28:15.874Z,44.90
2018-05-21T01:28:48.411Z,45.00
2018-05-21T01:29:20.927Z,45.00
2018-05-21T01:29:53.458Z,45.00
2018-05-21T01:30:26.012Z,45.00
2018-05-21T01:30:58.556Z,45.10
2018-05-21T01:31:31.076Z,45.10
2018-05-21T01:32:03.610Z,45.00
2018-05-21T01:32:36.161Z,45.10
2018-05-21T01:33:08.704Z,45.30
2018-05-21T01:33:41.255Z,45.10
2018-05-21T01:34:13.791Z,45.20
2018-05-21T01:34:47.108Z,45.40
2018-05-21T01:35:19.635Z,45.20
2018-05-21T01:35:52.205Z,45.30
2018-05-21T01:36:24.760Z,45.30
2018-05-21T01:36:57.299Z,45.30
2018-05-21T01:37:30.605Z,45.40
2018-05-21T01:38:03.139Z,45.20
2018-05-21T01:38:35.650Z,45.30
2018-05-21T01:39:08.192Z,45.20
2018-05-21T01:39:40.766Z,45.40
2018-05-21T01:40:13.309Z,45.50
2018-05-21T01:40:45.837Z,45.80
2018-05-21T01:41:18.394Z,46.10
2018-05-21T01:41:50.919Z,45.90
2018-05-21T01:42:24.239Z,46.70
2018-05-21T01:42:56.812Z,46.00
2018-05-21T01:43:29.356Z,46.10
2018-05-21T01:44:01.900Z,46.10
2018-05-21T01:44:34.445Z,46.10
2018-05-21T01:45:07.020Z,45.90
2018-05-21T01:45:39.544Z,46.00
2018-05-21T01:46:12.096Z,46.60
2018-05-21T01:46:44.639Z,46.00
2018-05-21T01:47:17.208Z,46.10
2018-05-21T01:47:49.849Z,45.90
2018-05-21T01:48:22.393Z,45.80
2018-05-21T01:48:55.053Z,45.50
2018-05-21T01:49:28.273Z,45.60
2018-05-21T01:50:00.876Z,45.50
2018-05-21T01:50:33.413Z,45.80
2018-05-21T01:51:05.940Z,46.10
2018-05-21T01:51:38.466Z,46.10
2018-05-21T01:52:11.047Z,45.90
2018-05-21T01:52:43.592Z,46.00
2018-05-21T01:53:16.146Z,46.10
2018-05-21T01:53:48.696Z,46.30
2018-05-21T01:54:21.247Z,46.40
2018-05-21T01:54:53.805Z,46.10
2018-05-21T01:55:26.342Z,46.00
2018-05-21T01:55:58.855Z,46.00
2018-05-21T01:56:31.425Z,46.00
2018-05-21T01:57:03.958Z,45.70
2018-05-21T01:57:36.523Z,45.70
2018-05-21T01:58:09.065Z,45.50
2018-05-21T01:58:42.360Z,46.20
2018-05-21T01:59:14.881Z,45.60
2018-05-21T01:59:47.406Z,45.90
2018-05-21T02:00:19.957Z,45.90
2018-05-21T02:00:52.522Z,46.00
2018-05-21T02:01:25.089Z,45.80
2018-05-21T02:01:57.627Z,46.10
2018-05-21T02:02:30.171Z,46.00
2018-05-21T02:03:03.497Z,46.30
2018-05-21T02:03:36.057Z,45.80
2018-05-21T02:04:08.595Z,45.90
2018-05-21T02:04:41.147Z,45.80
2018-05-21T02:05:13.664Z,45.90
2018-05-21T02:05:46.188Z,45.80
2018-05-21T02:06:18.720Z,45.90
2018-05-21T02:06:51.238Z,46.00
2018-05-21T02:07:23.783Z,45.80
2018-05-21T02:07:56.315Z,45.70
2018-05-21T02:08:28.884Z,45.50
2018-05-21T02:09:01.403Z,45.50
2018-05-21T02:09:33.928Z,45.50
2018-05-21T02:10:06.467Z,46.00
2018-05-21T02:10:39.011Z,46.20
2018-05-21T02:11:11.557Z,46.10
2018-05-21T02:11:44.097Z,46.10
2018-05-21T02:12:16.669Z,46.10
2018-05-21T02:12:49.217Z,45.90
2018-05-21T02:13:21.778Z,45.90
2018-05-21T02:13:54.323Z,46.00
2018-05-21T02:14:27.621Z,46.70
2018-05-21T02:15:00.173Z,46.00
2018-05-21T02:15:32.684Z,46.10
2018-05-21T02:16:05.227Z,45.70
2018-05-21T02:16:37.747Z,46.50
2018-05-21T02:17:11.066Z,46.50
2018-05-21T02:17:43.579Z,45.70
2018-05-21T02:18:16.127Z,45.90
2018-05-21T02:18:48.644Z,46.10
2018-05-21T02:19:21.159Z,46.10
2018-05-21T02:19:53.701Z,46.10
2018-05-21T02:20:26.250Z,46.30
2018-05-21T02:20:58.764Z,46.60
2018-05-21T02:21:31.289Z,46.60
2018-05-21T02:22:03.815Z,46.50
2018-05-21T02:22:36.332Z,46.50
2018-05-21T02:23:08.861Z,46.20
2018-05-21T02:23:41.408Z,46.80
2018-05-21T02:24:13.953Z,46.20
2018-05-21T02:24:47.284Z,47.00
2018-05-21T02:25:19.857Z,46.30
2018-05-21T02:25:52.425Z,46.30
2018-05-21T02:26:24.980Z,46.40
2018-05-21T02:26:57.576Z,47.50
2018-05-21T02:27:30.064Z,46.80
2018-05-21T02:28:02.975Z,47.00
2018-05-21T02:28:35.488Z,47.20
2018-05-21T02:29:08.029Z,47.50
2018-05-21T02:29:40.551Z,47.50
2018-05-21T02:30:13.077Z,47.30
2018-05-21T02:30:46.409Z,47.80
2018-05-21T02:31:18.937Z,47.50
2018-05-21T02:31:51.471Z,47.50
2018-05-21T02:32:23.995Z,47.50
2018-05-21T02:32:56.528Z,47.50
2018-05-21T02:33:29.076Z,47.40
2018-05-21T02:34:03.315Z,47.80
2018-05-21T02:34:35.836Z,48.00
2018-05-21T02:35:08.404Z,47.50
2018-05-21T02:35:40.960Z,47.60
2018-05-21T02:36:13.504Z,47.70
2018-05-21T02:36:46.021Z,47.70
2018-05-21T02:37:18.562Z,47.50
2018-05-21T02:37:51.125Z,47.60
2018-05-21T02:38:23.688Z,47.60
2018-05-21T02:38:56.203Z,47.50
2018-05-21T02:39:28.747Z,47.40
2018-05-21T02:40:01.357Z,47.50
2018-05-21T02:40:34.665Z,48.00
2018-05-21T02:41:07.220Z,47.50
2018-05-21T02:41:39.778Z,47.40
2018-05-21T02:42:12.307Z,47.40
2018-05-21T02:42:44.833Z,47.50
2018-05-21T02:43:17.359Z,47.70
2018-05-21T02:43:50.660Z,48.30
2018-05-21T02:44:23.180Z,47.90
2018-05-21T02:44:55.703Z,47.40
2018-05-21T02:45:28.275Z,47.00
2018-05-21T02:46:00.794Z,47.20
2018-05-21T02:46:34.107Z,47.80
2018-05-21T02:47:06.688Z,47.60
2018-05-21T02:47:39.213Z,47.80
2018-05-21T02:48:11.739Z,47.80
2018-05-21T02:48:44.252Z,47.90
2018-05-21T02:49:16.796Z,47.70
2018-05-21T02:49:50.089Z,48.00
2018-05-21T02:50:22.637Z,47.50
2018-05-21T02:50:55.184Z,47.30
2018-05-21T02:51:28.011Z,47.10
2018-05-21T02:52:00.560Z,47.50
2018-05-21T02:52:33.085Z,47.60
2018-05-21T02:53:05.636Z,47.80
2018-05-21T02:53:38.192Z,47.80
2018-05-21T02:54:10.748Z,47.80
2018-05-21T02:54:43.266Z,47.60
2018-05-21T02:55:15.788Z,47.40
2018-05-21T02:55:48.324Z,47.40
2018-05-21T02:56:20.888Z,47.40
2018-05-21T02:56:53.452Z,47.00
2018-05-21T02:57:26.024Z,47.10
2018-05-21T02:57:58.600Z,47.10
2018-05-21T02:58:31.179Z,47.20
2018-05-21T02:59:03.731Z,47.40
2018-05-21T02:59:36.284Z,47.50
2018-05-21T03:00:08.799Z,47.40
2018-05-21T03:00:41.326Z,47.30
2018-05-21T03:01:13.877Z,47.40
2018-05-21T03:01:46.419Z,47.20
2018-05-21T03:02:18.936Z,47.00
2018-05-21T03:02:51.457Z,46.90
2018-05-21T03:03:24.000Z,47.10
2018-05-21T03:03:56.565Z,47.10
2018-05-21T03:04:29.098Z,47.30
2018-05-21T03:05:02.399Z,47.60
2018-05-21T03:05:34.909Z,47.30
2018-05-21T03:06:07.440Z,47.50
2018-05-21T03:06:39.993Z,47.30
2018-05-21T03:07:12.540Z,47.30
2018-05-21T03:07:45.072Z,47.30
2018-05-21T03:08:17.599Z,47.30
2018-05-21T03:08:50.172Z,48.00
2018-05-21T03:09:22.698Z,47.20
2018-05-21T03:09:55.212Z,47.20
2018-05-21T03:10:27.760Z,47.40
2018-05-21T03:11:00.310Z,47.60
2018-05-21T03:11:32.832Z,47.40
2018-05-21T03:12:05.377Z,47.40
2018-05-21T03:12:38.688Z,47.70
2018-05-21T03:13:11.232Z,47.70
2018-05-21T03:13:43.792Z,47.60
2018-05-21T03:14:16.317Z,47.40
2018-05-21T03:14:48.828Z,47.20
2018-05-21T03:15:21.389Z,47.20
2018-05-21T03:15:53.911Z,47.10
2018-05-21T03:16:26.455Z,47.40
2018-05-21T03:16:59.001Z,47.40
2018-05-21T03:17:31.552Z,47.60
2018-05-21T03:18:04.071Z,47.50
2018-05-21T03:18:36.620Z,47.40
2018-05-21T03:19:09.185Z,47.60
2018-05-21T03:19:41.701Z,47.60
2018-05-21T03:20:14.220Z,47.70
2018-05-21T03:20:46.767Z,47.40
2018-05-21T03:21:19.313Z,47.40
2018-05-21T03:21:51.871Z,47.30
2018-05-21T03:22:24.420Z,47.40
2018-05-21T03:22:56.954Z,47.50
2018-05-21T03:23:29.491Z,47.40
2018-05-21T03:24:02.928Z,47.40
2018-05-21T03:24:35.484Z,47.20
2018-05-21T03:25:08.807Z,47.60
2018-05-21T03:25:41.350Z,47.50
2018-05-21T03:26:13.901Z,47.50
2018-05-21T03:26:46.449Z,47.50
2018-05-21T03:27:18.992Z,47.40
2018-05-21T03:27:51.522Z,47.50
2018-05-21T03:28:24.052Z,47.80
2018-05-21T03:28:56.580Z,47.60
2018-05-21T03:29:29.112Z,47.50
2018-05-21T03:30:02.605Z,47.50
2018-05-21T03:30:35.161Z,47.90
2018-05-21T03:31:07.683Z,47.50
2018-05-21T03:31:40.240Z,47.50
2018-05-21T03:32:12.761Z,47.60
2018-05-21T03:32:45.300Z,47.80
2018-05-21T03:33:17.860Z,47.80
2018-05-21T03:33:50.386Z,47.90
2018-05-21T03:34:23.560Z,47.90
2018-05-21T03:34:56.863Z,48.10
2018-05-21T03:35:29.422Z,47.90
2018-05-21T03:36:03.673Z,48.20
2018-05-21T03:36:36.211Z,48.20
2018-05-21T03:37:08.773Z,48.00
2018-05-21T03:37:41.304Z,47.80
2018-05-21T03:38:14.596Z,47.70
2018-05-21T03:38:47.139Z,47.60
2018-05-21T03:39:19.688Z,47.60
2018-05-21T03:39:52.241Z,47.70
2018-05-21T03:40:24.798Z,47.80
2018-05-21T03:40:57.319Z,47.60
2018-05-21T03:41:30.665Z,47.60
2018-05-21T03:42:03.213Z,47.40
2018-05-21T03:42:35.754Z,47.40
2018-05-21T03:43:08.285Z,47.20
2018-05-21T03:43:40.832Z,47.40
2018-05-21T03:44:13.357Z,47.20
2018-05-21T03:44:45.898Z,47.20
2018-05-21T03:45:18.456Z,47.30
2018-05-21T03:45:50.969Z,47.40
2018-05-21T03:46:23.510Z,47.50
2018-05-21T03:46:56.087Z,47.40
2018-05-21T03:47:28.616Z,47.40
2018-05-21T03:48:01.343Z,47.30
2018-05-21T03:48:33.885Z,47.40
2018-05-21T03:49:06.403Z,47.70
2018-05-21T03:49:38.934Z,47.70
2018-05-21T03:50:12.244Z,48.00
2018-05-21T03:50:44.769Z,47.70
2018-05-21T03:51:17.304Z,47.80
2018-05-21T03:51:49.853Z,47.60
2018-05-21T03:52:22.396Z,47.60
2018-05-21T03:52:54.911Z,47.50
2018-05-21T03:53:27.471Z,47.40
2018-05-21T03:54:00.028Z,47.80
2018-05-21T03:54:33.187Z,47.50
2018-05-21T03:55:05.759Z,47.40
2018-05-21T03:55:38.310Z,47.40
2018-05-21T03:56:10.869Z,47.40
2018-05-21T03:56:43.416Z,47.50
2018-05-21T03:57:15.936Z,47.50
2018-05-21T03:57:48.483Z,47.50
2018-05-21T03:58:32.623Z,47.40
2018-05-21T03:59:17.259Z,47.60
2018-05-21T04:00:01.521Z,47.60
2018-05-21T04:00:45.665Z,47.80
2018-05-21T04:02:36.940Z,48.10
2018-05-21T04:03:25.976Z,47.90
2018-05-21T04:03:58.507Z,47.90
2018-05-21T04:04:31.069Z,47.60
2018-05-21T04:05:03.624Z,47.40
2018-05-21T04:05:36.941Z,47.60
2018-05-21T04:06:09.468Z,47.50
2018-05-21T04:06:42.009Z,47.60
2018-05-21T04:07:14.528Z,47.80
2018-05-21T04:07:47.063Z,47.90
2018-05-21T04:08:19.588Z,47.80
2018-05-21T04:08:52.169Z,47.40
2018-05-21T04:09:24.740Z,47.30
2018-05-21T04:09:57.312Z,47.00
2018-05-21T04:10:29.875Z,47.20
2018-05-21T04:11:02.426Z,47.20
2018-05-21T04:11:35.745Z,47.40
2018-05-21T04:12:08.291Z,47.30
2018-05-21T04:12:40.816Z,47.50
2018-05-21T04:13:13.379Z,47.60
2018-05-21T04:13:45.924Z,47.70
2018-05-21T04:14:18.514Z,47.40
2018-05-21T04:14:51.078Z,47.60
2018-05-21T04:15:23.610Z,47.50
2018-05-21T04:15:56.148Z,47.40
2018-05-21T04:16:28.700Z,47.20
2018-05-21T04:17:01.253Z,47.00
2018-05-21T04:17:33.815Z,46.90
2018-05-21T04:18:06.371Z,47.10
2018-05-21T04:18:39.049Z,47.10
2018-05-21T04:19:11.521Z,47.20
2018-05-21T04:19:44.091Z,47.10
2018-05-21T04:20:16.696Z,47.10
2018-05-21T04:20:49.233Z,46.90
2018-05-21T04:21:21.760Z,46.80
2018-05-21T04:21:54.294Z,46.80
2018-05-21T04:22:26.832Z,46.70
2018-05-21T04:22:59.362Z,46.80
2018-05-21T04:23:31.919Z,46.80
2018-05-21T04:24:04.511Z,46.80
2018-05-21T04:24:37.063Z,46.40
2018-05-21T04:25:09.625Z,46.30
2018-05-21T04:25:42.172Z,46.30
2018-05-21T04:26:14.728Z,46.30
2018-05-21T04:26:47.275Z,46.70
2018-05-21T04:27:20.601Z,46.80
2018-05-21T04:27:53.181Z,46.90
2018-05-21T04:28:25.726Z,46.80
2018-05-21T04:28:58.279Z,46.50
2018-05-21T04:29:30.824Z,46.30
2018-05-21T04:30:03.387Z,46.30
2018-05-21T04:30:35.961Z,46.40
2018-05-21T04:31:08.507Z,46.50
2018-05-21T04:31:41.076Z,46.50
2018-05-21T04:32:13.620Z,46.80
2018-05-21T04:32:46.152Z,46.80
2018-05-21T04:33:18.720Z,46.70
2018-05-21T04:33:51.291Z,46.70
2018-05-21T04:34:23.851Z,46.60
2018-05-21T04:34:56.425Z,46.40
2018-05-21T04:35:28.993Z,46.00
2018-05-21T04:36:01.736Z,45.70
2018-05-21T04:36:34.363Z,45.80
2018-05-21T04:37:06.865Z,46.00
2018-05-21T04:37:39.410Z,46.10
2018-05-21T04:38:11.955Z,46.00
2018-05-21T04:38:44.601Z,46.20
2018-05-21T04:39:17.187Z,46.10
2018-05-21T04:39:49.732Z,46.10
2018-05-21T04:40:22.309Z,46.20
2018-05-21T04:40:54.863Z,45.80
2018-05-21T04:41:27.400Z,46.00
2018-05-21T04:41:59.916Z,45.90
2018-05-21T04:42:32.490Z,45.80
2018-05-21T04:43:05.016Z,45.60
2018-05-21T04:43:37.560Z,45.30
2018-05-21T04:44:10.874Z,46.00
2018-05-21T04:44:43.432Z,45.30
2018-05-21T04:45:15.969Z,45.30
2018-05-21T04:45:48.534Z,45.60
2018-05-21T04:46:21.070Z,45.90
2018-05-21T04:46:53.686Z,45.90
2018-05-21T04:47:26.251Z,46.30
2018-05-21T04:47:58.874Z,46.30
2018-05-21T04:48:31.401Z,46.30
2018-05-21T04:49:03.962Z,46.30
2018-05-21T04:49:36.503Z,46.40
2018-05-21T04:50:09.064Z,46.30
2018-05-21T04:50:41.640Z,46.40
2018-05-21T04:51:14.475Z,46.20
2018-05-21T04:51:47.033Z,46.50
2018-05-21T04:52:19.619Z,46.50
2018-05-21T04:52:52.179Z,46.20
2018-05-21T04:53:24.788Z,46.00
2018-05-21T04:53:57.317Z,45.80
2018-05-21T04:54:29.867Z,45.90
2018-05-21T04:55:02.411Z,46.40
2018-05-21T04:55:34.952Z,46.70
2018-05-21T04:56:07.504Z,46.70
2018-05-21T04:56:40.028Z,46.60
2018-05-21T04:57:13.344Z,47.00
2018-05-21T04:57:45.872Z,46.60
2018-05-21T04:58:18.439Z,46.90
2018-05-21T04:58:51.004Z,46.60
2018-05-21T04:59:23.543Z,46.60
2018-05-21T04:59:56.084Z,46.60
2018-05-21T05:00:28.637Z,46.60
2018-05-21T05:01:01.278Z,46.20
2018-05-21T05:01:33.882Z,45.70
2018-05-21T05:02:06.414Z,45.70
2018-05-21T05:02:38.979Z,45.90
2018-05-21T05:03:11.547Z,45.90
2018-05-21T05:03:44.084Z,45.90
2018-05-21T05:04:16.629Z,45.70
2018-05-21T05:04:49.200Z,45.50
2018-05-21T05:05:21.740Z,45.30
2018-05-21T05:05:54.263Z,45.30
2018-05-21T05:06:26.824Z,45.30
2018-05-21T05:06:59.390Z,45.10
2018-05-21T05:07:31.923Z,45.20
2018-05-21T05:08:05.232Z,45.90
2018-05-21T05:08:37.804Z,45.20
2018-05-21T05:09:10.341Z,45.20
2018-05-21T05:09:42.871Z,44.90
2018-05-21T05:10:15.424Z,44.80
2018-05-21T05:10:48.736Z,45.10
2018-05-21T05:11:21.327Z,44.80
2018-05-21T05:11:53.879Z,45.10
2018-05-21T05:12:26.503Z,45.10
2018-05-21T05:12:59.087Z,45.30
2018-05-21T05:13:32.412Z,45.60
2018-05-21T05:14:04.947Z,45.10
2018-05-21T05:14:37.497Z,45.00
2018-05-21T05:15:10.051Z,45.20
2018-05-21T05:15:43.347Z,45.90
2018-05-21T05:16:15.859Z,45.20
2018-05-21T05:16:48.417Z,44.90
2018-05-21T05:17:20.994Z,44.60
2018-05-21T05:17:53.580Z,44.90
2018-05-21T05:18:26.148Z,44.80
2018-05-21T05:18:58.688Z,45.50
2018-05-21T05:19:31.236Z,45.40
2018-05-21T05:20:03.780Z,45.30
2018-05-21T05:20:36.348Z,45.60
2018-05-21T05:21:08.929Z,45.30
2018-05-21T05:21:41.467Z,45.50
2018-05-21T05:22:14.017Z,45.50
2018-05-21T05:22:46.596Z,45.70
2018-05-21T05:23:19.114Z,45.90
2018-05-21T05:23:51.645Z,45.70
2018-05-21T05:24:24.187Z,45.50
2018-05-21T05:24:56.702Z,45.20
2018-05-21T05:25:29.223Z,45.30
2018-05-21T05:26:02.555Z,45.30
2018-05-21T05:26:35.142Z,45.20
2018-05-21T05:27:07.633Z,45.00
2018-05-21T05:27:40.199Z,45.90
2018-05-21T05:28:12.767Z,45.20
2018-05-21T05:28:45.288Z,45.60
2018-05-21T05:29:17.842Z,45.60
2018-05-21T05:29:50.399Z,45.80
2018-05-21T05:30:22.919Z,46.10
2018-05-21T05:30:55.452Z,45.60
2018-05-21T05:31:27.988Z,45.70
2018-05-21T05:32:01.281Z,46.20
2018-05-21T05:32:33.808Z,45.60
2018-05-21T05:33:06.351Z,45.40
2018-05-21T05:33:38.916Z,45.60
2018-05-21T05:34:11.467Z,45.50
2018-05-21T05:34:44.025Z,45.10
2018-05-21T05:35:16.603Z,45.10
2018-05-21T05:35:49.125Z,45.30
2018-05-21T05:36:21.668Z,45.40
2018-05-21T05:36:54.987Z,46.10
2018-05-21T05:37:27.544Z,45.50
2018-05-21T05:38:00.090Z,45.70
2018-05-21T05:38:32.638Z,45.80
2018-05-21T05:39:06.050Z,46.40
2018-05-21T05:39:38.574Z,46.60
2018-05-21T05:40:11.912Z,46.40
2018-05-21T05:40:44.432Z,45.60
2018-05-21T05:41:16.947Z,45.40
2018-05-21T05:41:49.479Z,45.30
2018-05-21T05:42:22.023Z,45.20
2018-05-21T05:42:54.951Z,45.20
2018-05-21T05:43:27.468Z,45.20
2018-05-21T05:43:59.979Z,44.80
2018-05-21T05:44:32.586Z,44.80
2018-05-21T05:45:05.132Z,44.70
2018-05-21T05:45:37.687Z,44.50
2018-05-21T05:46:10.217Z,44.50
2018-05-21T05:46:42.770Z,45.00
2018-05-21T05:47:15.295Z,45.00
2018-05-21T05:47:47.827Z,45.00
2018-05-21T05:48:20.384Z,45.00
2018-05-21T05:48:52.931Z,44.80
2018-05-21T05:49:25.491Z,44.60
2018-05-21T05:49:58.068Z,44.40
2018-05-21T05:50:30.621Z,44.30
2018-05-21T05:51:03.177Z,44.40
2018-05-21T05:51:35.704Z,44.50
2018-05-21T05:52:09.670Z,44.80
2018-05-21T05:52:42.220Z,44.60
2018-05-21T05:53:14.764Z,44.70
2018-05-21T05:53:47.285Z,44.60
2018-05-21T05:54:19.796Z,44.80
2018-05-21T05:54:52.360Z,44.90
2018-05-21T05:55:24.912Z,44.70
2018-05-21T05:55:57.446Z,44.70
2018-05-21T05:56:30.765Z,44.70
2018-05-21T05:57:03.279Z,44.60
2018-05-21T05:57:35.794Z,44.40
2018-05-21T05:58:08.392Z,44.10
2018-05-21T05:58:40.867Z,44.00
2018-05-21T05:59:14.143Z,44.40
2018-05-21T05:59:47.432Z,43.60
2018-05-21T06:00:19.977Z,43.50
2018-05-21T06:00:52.519Z,43.70
2018-05-21T06:01:25.075Z,43.90
2018-05-21T06:01:57.605Z,44.00
2018-05-21T06:02:30.157Z,44.40
2018-05-21T06:03:02.700Z,44.60
2018-05-21T06:03:35.248Z,44.50
2018-05-21T06:04:07.783Z,44.50
2018-05-21T06:04:40.321Z,44.30
2018-05-21T06:05:12.852Z,44.50
2018-05-21T06:05:45.364Z,44.40
2018-05-21T06:06:17.889Z,44.30
2018-05-21T06:06:50.438Z,44.30
2018-05-21T06:07:22.996Z,44.10
2018-05-21T06:07:55.543Z,43.90
2018-05-21T06:08:28.079Z,43.90
2018-05-21T06:09:00.600Z,43.90
2018-05-21T06:09:33.879Z,43.70
2018-05-21T06:10:06.453Z,43.70
2018-05-21T06:10:38.972Z,43.60
2018-05-21T06:11:11.511Z,43.50
2018-05-21T06:11:44.028Z,43.60
2018-05-21T06:12:16.575Z,43.80
2018-05-21T06:12:49.134Z,43.90
2018-05-21T06:13:21.702Z,44.00
2018-05-21T06:13:54.229Z,44.10
2018-05-21T06:14:26.746Z,44.40
2018-05-21T06:14:59.268Z,44.60
2018-05-21T06:15:31.820Z,44.40
2018-05-21T06:16:04.431Z,44.40
2018-05-21T06:16:36.982Z,44.50
2018-05-21T06:17:09.523Z,44.40
2018-05-21T06:17:42.074Z,44.30
2018-05-21T06:18:14.622Z,44.40
2018-05-21T06:18:47.153Z,44.40
2018-05-21T06:19:19.691Z,44.60
2018-05-21T06:19:52.216Z,44.40
2018-05-21T06:20:24.744Z,44.60
2018-05-21T06:20:57.281Z,44.80
2018-05-21T06:21:29.873Z,44.70
2018-05-21T06:22:02.596Z,44.70
2018-05-21T06:22:35.119Z,44.60
2018-05-21T06:23:07.663Z,44.70
2018-05-21T06:23:40.180Z,44.50
2018-05-21T06:24:12.732Z,44.40
2018-05-21T06:24:45.259Z,44.50
2018-05-21T06:25:18.553Z,44.50
2018-05-21T06:25:51.141Z,44.40
2018-05-21T06:26:23.647Z,44.20
2018-05-21T06:26:56.222Z,44.30
2018-05-21T06:27:28.788Z,44.30
2018-05-21T06:28:01.323Z,44.40
2018-05-21T06:28:33.900Z,44.40
2018-05-21T06:29:06.430Z,44.30
2018-05-21T06:29:38.963Z,44.40
2018-05-21T06:30:11.504Z,44.30
2018-05-21T06:30:44.023Z,44.30
2018-05-21T06:31:16.572Z,44.40
2018-05-21T06:31:49.115Z,44.40
2018-05-21T06:32:21.639Z,44.50
2018-05-21T06:32:54.188Z,44.50
2018-05-21T06:33:26.740Z,45.30
2018-05-21T06:33:59.303Z,44.60
2018-05-21T06:34:31.797Z,44.80
2018-05-21T06:35:04.325Z,44.80
2018-05-21T06:35:36.844Z,45.60
2018-05-21T06:36:09.357Z,45.00
2018-05-21T06:36:41.892Z,45.10
2018-05-21T06:37:14.437Z,45.20
2018-05-21T06:37:46.954Z,45.50
2018-05-21T06:38:19.508Z,45.60
2018-05-21T06:38:52.093Z,45.60
2018-05-21T06:39:24.639Z,45.30
2018-05-21T06:39:57.201Z,45.70
2018-05-21T06:40:29.720Z,45.50
2018-05-21T06:41:03.035Z,46.10
2018-05-21T06:41:35.565Z,45.80
2018-05-21T06:42:08.114Z,45.80
2018-05-21T06:42:40.663Z,46.00
2018-05-21T06:43:13.182Z,45.70
2018-05-21T06:43:45.704Z,45.60
2018-05-21T06:44:19.052Z,46.60
2018-05-21T06:44:51.601Z,45.90
2018-05-21T06:45:24.144Z,45.70
2018-05-21T06:45:56.659Z,45.70
2018-05-21T06:46:29.187Z,45.60
2018-05-21T06:47:01.720Z,45.80
2018-05-21T06:47:34.270Z,46.00
2018-05-21T06:48:06.827Z,46.10
2018-05-21T06:48:39.344Z,46.00
2018-05-21T06:49:11.893Z,46.00
2018-05-21T06:49:44.448Z,46.10
2018-05-21T06:50:16.967Z,46.30
2018-05-21T06:50:49.486Z,46.40
2018-05-21T06:51:22.014Z,46.20
2018-05-21T06:51:55.322Z,46.80
2018-05-21T06:52:27.846Z,46.20
2018-05-21T06:53:00.387Z,46.00
2018-05-21T06:53:32.930Z,45.80
2018-05-21T06:54:05.476Z,45.60
2018-05-21T06:54:38.060Z,45.60
2018-05-21T06:55:10.575Z,45.60
2018-05-21T06:55:43.900Z,46.00
2018-05-21T06:56:16.435Z,45.70
2018-05-21T06:56:48.955Z,45.50
2018-05-21T06:57:21.474Z,45.70
2018-05-21T06:57:54.045Z,45.70
2018-05-21T06:58:26.590Z,45.60
2018-05-21T06:58:59.143Z,45.80
2018-05-21T06:59:31.693Z,45.60
2018-05-21T07:00:05.012Z,45.70
2018-05-21T07:00:37.524Z,45.40
2018-05-21T07:01:10.805Z,45.40
2018-05-21T07:01:43.373Z,45.30
2018-05-21T07:02:15.944Z,45.20
2018-05-21T07:02:48.491Z,45.00